createdAt,value
2019-02-27T00:01:16.924Z,33.90
2019-02-27T00:03:46.196Z,33.03
2019-02-27T00:06:15.926Z,34.53
2019-02-27T00:08:42.780Z,34.60
2019-02-27T00:11:12.236Z,37.03
2019-02-27T00:13:39.004Z,35.70
2019-02-27T00:16:10.884Z,35.03
2019-02-27T00:18:36.606Z,35.10
2019-02-27T00:21:05.081Z,36.60
2019-02-27T00:23:33.050Z,36.80
2019-02-27T00:26:00.196Z,37.00
2019-02-27T00:28:27.231Z,35.33
2019-02-27T00:30:54.650Z,36.33
2019-02-27T00:33:25.051Z,37.77
2019-02-27T00:35:51.308Z,36.00
2019-02-27T00:38:18.865Z,37.10
2019-02-27T00:40:45.898Z,39.10
2019-02-27T00:43:13.673Z,34.97
2019-02-27T00:45:41.195Z,35.57
2019-02-27T00:48:09.718Z,37.70
2019-02-27T00:50:38.915Z,37.00
2019-02-27T00:53:06.174Z,39.73
2019-02-27T00:55:38.640Z,41.07
2019-02-27T00:58:03.645Z,44.60
2019-02-27T01:00:32.127Z,44.67
2019-02-27T01:02:59.886Z,47.27
2019-02-27T01:05:27.243Z,45.77
2019-02-27T01:07:54.745Z,45.60
2019-02-27T01:10:23.485Z,41.97
2019-02-27T01:12:51.965Z,48.23
2019-02-27T01:15:21.061Z,46.17
2019-02-27T01:17:48.726Z,49.57
2019-02-27T01:20:16.182Z,47.40
2019-02-27T01:22:43.639Z,48.97
2019-02-27T01:25:11.297Z,47.10
2019-02-27T01:27:38.972Z,46.47
2019-02-27T01:30:07.441Z,43.93
2019-02-27T01:32:34.901Z,46.53
2019-02-27T01:35:01.998Z,44.67
2019-02-27T01:37:31.688Z,47.20
2019-02-27T01:39:58.542Z,48.67
2019-02-27T01:42:31.969Z,41.17
2019-02-27T01:44:57.324Z,40.83
2019-02-27T01:47:26.498Z,39.87
2019-02-27T01:49:54.161Z,40.60
2019-02-27T01:52:21.231Z,40.70
2019-02-27T01:54:49.791Z,38.87
2019-02-27T01:57:17.187Z,38.00
2019-02-27T01:59:44.501Z,39.33
2019-02-27T02:02:11.670Z,39.50
2019-02-27T02:04:40.139Z,35.67
2019-02-27T02:07:08.610Z,34.90
2019-02-27T02:09:37.763Z,36.80
2019-02-27T02:12:17.236Z,36.30
2019-02-27T02:15:09.905Z,36.27
2019-02-27T02:18:27.999Z,34.53
2019-02-27T02:21:18.023Z,33.13
2019-02-27T02:24:26.447Z,31.23
2019-02-27T02:27:20.854Z,31.50
2019-02-27T02:30:12.871Z,31.67
2019-02-27T02:32:53.405Z,34.63
2019-02-27T02:35:53.662Z,30.33
2019-02-27T02:39:09.038Z,30.87
2019-02-27T02:42:24.345Z,34.33
2019-02-27T02:45:49.425Z,31.17
2019-02-27T02:48:35.724Z,32.67
2019-02-27T02:51:46.188Z,32.07
2019-02-27T02:54:48.406Z,33.17
2019-02-27T02:57:36.236Z,31.87
2019-02-27T03:00:29.197Z,32.33
2019-02-27T03:03:28.967Z,31.63
2019-02-27T03:06:38.623Z,32.43
2019-02-27T03:09:12.718Z,32.37
2019-02-27T03:12:29.826Z,32.90
2019-02-27T03:15:19.770Z,32.13
2019-02-27T03:18:04.697Z,33.50
2019-02-27T03:21:07.987Z,33.40
2019-02-27T03:24:00.570Z,33.73
2019-02-27T03:27:11.712Z,33.70
2019-02-27T03:30:21.138Z,30.00
2019-02-27T03:33:28.564Z,31.63
2019-02-27T03:36:35.821Z,30.17
2019-02-27T03:39:23.055Z,32.50
2019-02-27T03:42:30.920Z,30.90
2019-02-27T03:45:30.715Z,30.50
2019-02-27T03:48:44.180Z,34.07
2019-02-27T03:51:24.706Z,32.63
2019-02-27T03:54:21.306Z,32.00
2019-02-27T03:57:21.417Z,31.13
2019-02-27T04:00:23.688Z,33.13
2019-02-27T04:03:17.137Z,33.40
2019-02-27T04:06:21.329Z,33.13
2019-02-27T04:08:53.905Z,33.13
2019-02-27T04:11:21.224Z,33.70
2019-02-27T04:13:48.277Z,30.73
2019-02-27T04:16:15.317Z,34.73
2019-02-27T04:18:43.017Z,32.70
2019-02-27T04:21:10.033Z,32.80
2019-02-27T04:23:37.094Z,33.50
2019-02-27T04:26:05.771Z,31.40
2019-02-27T04:28:33.068Z,34.57
2019-02-27T04:31:00.391Z,32.00
2019-02-27T04:33:29.222Z,33.83
2019-02-27T04:35:56.265Z,29.03
2019-02-27T04:38:25.094Z,36.10
2019-02-27T04:40:52.234Z,32.20
2019-02-27T04:43:19.245Z,29.40
2019-02-27T04:45:46.883Z,29.73
2019-02-27T04:48:15.669Z,30.93
2019-02-27T04:50:44.170Z,31.87
2019-02-27T04:53:11.596Z,29.77
2019-02-27T04:55:38.632Z,31.33
2019-02-27T04:58:08.833Z,33.87
2019-02-27T05:00:34.896Z,30.27
2019-02-27T05:03:01.902Z,31.43
2019-02-27T05:05:28.930Z,32.70
2019-02-27T05:07:55.937Z,31.17
2019-02-27T05:10:23.369Z,32.67
2019-02-27T05:12:51.433Z,29.80
2019-02-27T05:15:18.734Z,29.20
2019-02-27T05:17:46.579Z,30.80
2019-02-27T05:20:14.323Z,31.73
2019-02-27T05:22:46.695Z,31.30
2019-02-27T05:25:15.049Z,29.37
2019-02-27T05:27:43.352Z,31.40
2019-02-27T05:30:12.323Z,31.00
2019-02-27T05:32:40.031Z,31.77
2019-02-27T05:35:07.200Z,31.47
2019-02-27T05:37:36.093Z,30.10
2019-02-27T05:40:03.651Z,29.10
2019-02-27T05:42:30.846Z,28.63
2019-02-27T05:44:57.931Z,29.80
2019-02-27T05:47:25.066Z,31.10
2019-02-27T05:49:52.147Z,30.80
2019-02-27T05:52:19.238Z,29.80
2019-02-27T05:54:46.423Z,30.53
2019-02-27T05:57:15.324Z,30.93
2019-02-27T05:59:42.420Z,27.97
2019-02-27T06:02:10.990Z,30.00
2019-02-27T06:04:38.698Z,27.70
2019-02-27T06:07:06.345Z,29.13
2019-02-27T06:09:35.128Z,28.60
2019-02-27T06:12:06.524Z,28.70
2019-02-27T06:14:33.333Z,28.50
2019-02-27T06:17:01.086Z,29.50
2019-02-27T06:19:30.577Z,28.70
2019-02-27T06:21:57.836Z,29.83
2019-02-27T06:24:25.294Z,29.30
2019-02-27T06:26:52.443Z,27.97
2019-02-27T06:29:23.294Z,26.10
2019-02-27T06:31:49.710Z,27.83
2019-02-27T06:34:16.875Z,29.07
2019-02-27T06:36:44.624Z,26.70
2019-02-27T06:39:12.418Z,26.07
2019-02-27T06:41:39.993Z,26.70
2019-02-27T06:44:08.306Z,29.23
2019-02-27T06:46:35.431Z,30.17
2019-02-27T06:49:03.599Z,28.03
2019-02-27T06:51:30.711Z,27.50
2019-02-27T06:53:57.865Z,27.70
2019-02-27T06:56:24.978Z,27.40
2019-02-27T06:58:52.445Z,26.97
2019-02-27T07:01:19.530Z,25.93
2019-02-27T07:03:47.367Z,27.43
2019-02-27T07:06:14.780Z,27.50
2019-02-27T07:08:42.180Z,28.90
2019-02-27T07:11:11.265Z,25.77
2019-02-27T07:13:38.636Z,28.50
2019-02-27T07:16:06.091Z,28.03
2019-02-27T07:18:36.434Z,30.60
2019-02-27T07:21:03.969Z,26.93
2019-02-27T07:23:31.301Z,27.50
2019-02-27T07:25:59.324Z,28.60
2019-02-27T07:28:26.397Z,29.00
2019-02-27T07:30:53.854Z,28.10
2019-02-27T07:33:22.351Z,28.80
2019-02-27T07:35:49.708Z,28.70
2019-02-27T07:38:21.400Z,27.63
2019-02-27T07:40:46.085Z,27.50
2019-02-27T07:43:14.159Z,25.70
2019-02-27T07:45:45.023Z,25.03
2019-02-27T07:48:11.937Z,25.67
2019-02-27T07:50:40.522Z,25.97
2019-02-27T07:53:07.956Z,26.17
2019-02-27T07:55:35.332Z,26.67
2019-02-27T07:58:02.451Z,27.10
2019-02-27T08:00:29.522Z,26.77
2019-02-27T08:02:56.679Z,25.00
2019-02-27T08:05:28.265Z,25.17
2019-02-27T08:07:53.594Z,26.70
2019-02-27T08:10:20.717Z,25.60
2019-02-27T08:12:48.098Z,25.90
2019-02-27T08:15:16.038Z,26.23
2019-02-27T08:17:43.968Z,26.57
2019-02-27T08:20:12.841Z,25.33
2019-02-27T08:22:39.903Z,25.47
2019-02-27T08:25:08.407Z,27.43
2019-02-27T08:27:35.851Z,26.53
2019-02-27T08:30:04.340Z,25.20
2019-02-27T08:32:34.586Z,26.53
2019-02-27T08:35:02.052Z,23.00
2019-02-27T08:37:30.145Z,25.97
2019-02-27T08:39:57.261Z,26.53
2019-02-27T08:42:24.312Z,24.60
2019-02-27T08:44:51.389Z,27.03
2019-02-27T08:47:18.587Z,26.17
2019-02-27T08:49:45.641Z,26.60
2019-02-27T08:52:16.249Z,27.40
2019-02-27T08:54:43.465Z,26.37
2019-02-27T08:57:10.997Z,26.47
2019-02-27T08:59:39.872Z,25.80
2019-02-27T09:02:08.747Z,27.07
2019-02-27T09:04:36.934Z,26.27
2019-02-27T09:07:04.022Z,26.50
2019-02-27T09:09:31.102Z,27.53
2019-02-27T09:11:58.298Z,25.73
2019-02-27T09:14:25.492Z,24.30
2019-02-27T09:16:52.560Z,25.50
2019-02-27T09:19:20.768Z,27.70
2019-02-27T09:21:49.422Z,26.97
2019-02-27T09:24:16.855Z,24.27
2019-02-27T09:26:44.852Z,24.43
2019-02-27T09:29:13.377Z,26.07
2019-02-27T09:31:50.271Z,26.85
2019-02-27T09:34:09.701Z,26.10
2019-02-27T09:36:36.705Z,26.30
2019-02-27T09:39:05.943Z,25.47
2019-02-27T09:41:34.399Z,26.10
2019-02-27T09:44:02.675Z,25.00
2019-02-27T09:46:29.792Z,24.40
2019-02-27T09:48:57.176Z,24.63
2019-02-27T09:51:24.332Z,22.03
2019-02-27T09:53:51.697Z,20.47
2019-02-27T09:56:19.085Z,22.73
2019-02-27T09:58:47.357Z,22.57
2019-02-27T10:01:16.350Z,22.57
2019-02-27T10:03:43.374Z,21.73
2019-02-27T10:06:10.434Z,20.23
2019-02-27T10:08:37.774Z,23.70
2019-02-27T10:11:05.111Z,21.97
2019-02-27T10:13:35.480Z,22.13
2019-02-27T10:16:03.668Z,20.60
2019-02-27T10:18:31.787Z,20.10
2019-02-27T10:20:59.029Z,19.97
2019-02-27T10:23:30.454Z,17.97
2019-02-27T10:25:55.574Z,19.07
2019-02-27T10:28:22.686Z,18.17
2019-02-27T10:30:50.942Z,19.80
2019-02-27T10:33:18.391Z,18.40
2019-02-27T10:35:45.593Z,17.57
2019-02-27T10:38:12.679Z,19.90
2019-02-27T10:40:40.534Z,18.83
2019-02-27T10:43:08.711Z,17.20
2019-02-27T10:45:36.140Z,20.10
2019-02-27T10:48:03.216Z,18.73
2019-02-27T10:50:30.411Z,19.63
2019-02-27T10:52:57.502Z,18.30
2019-02-27T10:55:26.698Z,17.87
2019-02-27T10:57:54.071Z,18.17
2019-02-27T11:00:28.342Z,20.10
2019-02-27T11:02:55.501Z,19.70
2019-02-27T11:05:24.527Z,19.10
2019-02-27T11:07:52.972Z,20.20
2019-02-27T11:10:21.925Z,20.00
2019-02-27T11:12:49.307Z,19.43
2019-02-27T11:15:16.722Z,17.57
2019-02-27T11:17:43.890Z,19.60
2019-02-27T11:20:11.176Z,17.93
2019-02-27T11:22:38.457Z,19.53
2019-02-27T11:25:08.066Z,19.90
2019-02-27T11:27:36.327Z,17.20
2019-02-27T11:30:05.453Z,18.37
2019-02-27T11:32:35.490Z,19.63
2019-02-27T11:35:02.867Z,20.27
2019-02-27T11:37:30.798Z,19.33
2019-02-27T11:39:57.865Z,20.83
2019-02-27T11:42:25.696Z,22.87
2019-02-27T11:44:53.102Z,24.20
2019-02-27T11:47:20.181Z,25.93
2019-02-27T11:49:47.565Z,25.17
2019-02-27T11:52:14.625Z,24.57
2019-02-27T11:54:43.811Z,25.50
2019-02-27T11:57:12.893Z,24.63
2019-02-27T11:59:39.942Z,26.23
2019-02-27T12:02:07.525Z,25.23
2019-02-27T12:04:34.582Z,27.07
2019-02-27T12:07:01.764Z,27.40
2019-02-27T12:09:28.810Z,26.23
2019-02-27T12:11:55.878Z,26.80
2019-02-27T12:14:23.052Z,25.67
2019-02-27T12:16:52.488Z,26.03
2019-02-27T12:19:19.798Z,27.07
2019-02-27T12:21:47.155Z,25.10
2019-02-27T12:24:16.338Z,26.60
2019-02-27T12:26:43.482Z,26.40
2019-02-27T12:29:10.539Z,23.40
2019-02-27T12:31:37.630Z,26.20
2019-02-27T12:34:05.173Z,25.60
2019-02-27T12:36:32.280Z,24.57
2019-02-27T12:38:59.339Z,25.53
2019-02-27T12:41:26.776Z,24.60
2019-02-27T12:43:53.874Z,25.97
2019-02-27T12:46:20.979Z,26.60
2019-02-27T12:48:48.078Z,24.50
2019-02-27T12:51:15.135Z,25.03
2019-02-27T12:53:42.490Z,24.93
2019-02-27T12:56:10.013Z,21.60
2019-02-27T12:58:37.233Z,25.83
2019-02-27T13:01:05.442Z,24.10
2019-02-27T13:03:32.500Z,23.80
2019-02-27T13:06:00.942Z,21.83
2019-02-27T13:08:28.723Z,24.40
2019-02-27T13:10:56.547Z,25.20
2019-02-27T13:13:25.949Z,23.27
2019-02-27T13:15:52.652Z,25.03
2019-02-27T13:18:19.716Z,22.93
2019-02-27T13:20:46.805Z,23.50
2019-02-27T13:23:13.868Z,25.80
2019-02-27T13:25:40.938Z,21.77
2019-02-27T13:28:08.697Z,20.30
2019-02-27T13:30:36.046Z,22.20
2019-02-27T13:33:03.506Z,22.70
2019-02-27T13:35:31.371Z,22.67
2019-02-27T13:37:58.982Z,22.67
2019-02-27T13:40:26.486Z,23.13
2019-02-27T13:42:53.986Z,21.73
2019-02-27T13:45:22.819Z,21.70
2019-02-27T13:47:50.601Z,22.30
2019-02-27T13:50:22.405Z,20.90
2019-02-27T13:52:49.783Z,22.60
2019-02-27T13:55:16.546Z,23.03
2019-02-27T13:57:44.421Z,23.77
2019-02-27T14:00:20.404Z,22.27
2019-02-27T14:02:46.351Z,22.67
2019-02-27T14:05:14.366Z,22.03
2019-02-27T14:07:42.130Z,22.47
2019-02-27T14:10:10.793Z,23.33
2019-02-27T14:12:38.586Z,23.70
2019-02-27T14:15:07.156Z,23.90
2019-02-27T14:17:36.223Z,24.50
2019-02-27T14:20:05.332Z,23.00
2019-02-27T14:22:33.431Z,22.70
2019-02-27T14:25:01.186Z,20.50
2019-02-27T14:27:29.671Z,23.57
2019-02-27T14:29:57.092Z,21.77
2019-02-27T14:32:24.327Z,22.33
2019-02-27T14:34:51.555Z,21.63
2019-02-27T14:37:19.382Z,20.10
2019-02-27T14:39:46.945Z,16.67
2019-02-27T14:42:14.309Z,15.87
2019-02-27T14:44:42.397Z,15.57
2019-02-27T14:47:09.596Z,13.73
2019-02-27T14:49:37.090Z,15.97
2019-02-27T14:52:04.444Z,16.80
2019-02-27T14:54:32.617Z,16.93
2019-02-27T14:57:00.277Z,17.30
2019-02-27T14:59:30.500Z,17.70
2019-02-27T15:01:58.377Z,17.30
2019-02-27T15:04:25.462Z,16.07
2019-02-27T15:06:52.769Z,16.50
2019-02-27T15:09:21.377Z,17.00
2019-02-27T15:11:50.855Z,19.00
2019-02-27T15:14:19.145Z,16.87
2019-02-27T15:16:49.874Z,16.20
2019-02-27T15:19:18.945Z,17.70
2019-02-27T15:21:47.317Z,20.93
2019-02-27T15:24:15.678Z,18.43
2019-02-27T15:26:45.444Z,19.40
2019-02-27T15:29:12.683Z,19.37
2019-02-27T15:31:40.650Z,20.20
2019-02-27T15:34:11.971Z,20.70
2019-02-27T15:36:37.242Z,21.63
2019-02-27T15:39:06.357Z,20.57
2019-02-27T15:41:35.972Z,21.60
2019-02-27T15:44:04.200Z,22.77
2019-02-27T15:46:31.419Z,21.23
2019-02-27T15:49:00.392Z,22.07
2019-02-27T15:51:28.523Z,23.30
2019-02-27T15:53:56.842Z,21.37
2019-02-27T15:56:24.611Z,23.20
2019-02-27T15:58:52.095Z,25.33
2019-02-27T16:01:19.654Z,22.67
2019-02-27T16:03:47.158Z,23.20
2019-02-27T16:06:14.646Z,22.37
2019-02-27T16:08:42.061Z,24.93
2019-02-27T16:11:10.200Z,27.43
2019-02-27T16:13:38.260Z,26.30
2019-02-27T16:16:05.337Z,28.90
2019-02-27T16:18:33.864Z,29.50
2019-02-27T16:21:01.911Z,28.90
2019-02-27T16:23:31.553Z,29.30
2019-02-27T16:25:58.627Z,30.53
2019-02-27T16:28:26.016Z,31.10
2019-02-27T16:30:53.748Z,29.23
2019-02-27T16:33:24.062Z,28.20
2019-02-27T16:35:50.706Z,29.03
2019-02-27T16:38:18.197Z,29.13
2019-02-27T16:40:45.270Z,29.77
2019-02-27T16:43:14.326Z,30.53
2019-02-27T16:45:44.127Z,28.53
2019-02-27T16:48:11.530Z,30.47
2019-02-27T16:50:39.345Z,28.77
2019-02-27T16:53:07.079Z,28.80
2019-02-27T16:55:37.459Z,30.37
2019-02-27T16:58:07.755Z,31.00
2019-02-27T17:00:35.446Z,30.50
2019-02-27T17:03:02.971Z,30.47
2019-02-27T17:05:32.025Z,32.30
2019-02-27T17:08:02.000Z,31.33
2019-02-27T17:10:29.585Z,31.83
2019-02-27T17:12:57.308Z,31.73
2019-02-27T17:15:24.713Z,31.10
2019-02-27T17:17:53.931Z,32.33
2019-02-27T17:20:24.085Z,30.10
2019-02-27T17:22:52.250Z,30.70
2019-02-27T17:25:19.319Z,29.77
2019-02-27T17:27:49.913Z,31.03
2019-02-27T17:30:20.461Z,29.27
2019-02-27T17:32:47.741Z,33.20
2019-02-27T17:35:14.859Z,32.30
2019-02-27T17:37:42.270Z,32.57
2019-02-27T17:40:09.867Z,34.67
2019-02-27T17:42:39.051Z,35.10
2019-02-27T17:45:10.054Z,33.07
2019-02-27T17:47:38.014Z,33.57
2019-02-27T17:50:05.850Z,31.53
2019-02-27T17:52:36.292Z,31.40
2019-02-27T17:55:06.853Z,31.50
2019-02-27T17:57:35.826Z,30.83
2019-02-27T18:00:06.232Z,31.80
2019-02-27T18:02:35.632Z,33.57
2019-02-27T18:05:03.508Z,34.18
2019-02-27T18:07:34.526Z,30.90
2019-02-27T18:10:02.393Z,32.20
2019-02-27T18:12:30.700Z,31.30
2019-02-27T18:14:57.904Z,29.80
2019-02-27T18:17:25.998Z,30.83
2019-02-27T18:19:55.221Z,29.47
2019-02-27T18:22:24.400Z,32.23
2019-02-27T18:24:57.228Z,30.10
2019-02-27T18:27:25.447Z,29.67
2019-02-27T18:29:53.882Z,31.70
2019-02-27T18:32:22.515Z,31.10
2019-02-27T18:34:54.394Z,30.93
2019-02-27T18:37:19.790Z,31.27
2019-02-27T18:39:46.908Z,31.43
2019-02-27T18:42:14.015Z,31.20
2019-02-27T18:44:43.302Z,32.40
2019-02-27T18:47:12.820Z,32.77
2019-02-27T18:49:44.852Z,32.83
2019-02-27T18:52:21.049Z,33.23
2019-02-27T18:54:43.656Z,30.50
2019-02-27T18:57:12.150Z,31.80
2019-02-27T18:59:40.718Z,31.40
2019-02-27T19:02:07.919Z,31.60
2019-02-27T19:04:35.927Z,32.53
2019-02-27T19:07:03.990Z,32.53
2019-02-27T19:09:34.348Z,31.77
2019-02-27T19:12:01.947Z,32.17
2019-02-27T19:14:30.281Z,31.50
2019-02-27T19:16:58.049Z,32.50
2019-02-27T19:19:26.318Z,31.03
2019-02-27T19:21:53.411Z,31.43
2019-02-27T19:24:26.514Z,31.67
2019-02-27T19:26:49.600Z,29.97
2019-02-27T19:29:16.674Z,32.27
2019-02-27T19:31:43.780Z,31.20
2019-02-27T19:34:10.937Z,31.53
2019-02-27T19:36:38.022Z,33.53
2019-02-27T19:39:06.528Z,30.53
2019-02-27T19:41:39.528Z,31.40
2019-02-27T19:44:05.299Z,30.50
2019-02-27T19:46:32.746Z,31.00
2019-02-27T19:49:00.890Z,30.80
2019-02-27T19:51:28.825Z,29.80
2019-02-27T19:53:55.918Z,31.87
2019-02-27T19:56:24.370Z,29.70
2019-02-27T19:58:52.639Z,30.13
2019-02-27T20:01:20.138Z,30.57
2019-02-27T20:03:47.195Z,31.60
2019-02-27T20:06:14.652Z,32.27
2019-02-27T20:08:45.325Z,29.13
2019-02-27T20:11:11.681Z,30.20
2019-02-27T20:13:38.839Z,28.90
2019-02-27T20:16:06.352Z,30.70
2019-02-27T20:18:33.583Z,33.17
2019-02-27T20:21:02.565Z,28.90
2019-02-27T20:23:29.670Z,30.10
2019-02-27T20:25:56.747Z,29.17
2019-02-27T20:28:23.867Z,28.60
2019-02-27T20:30:52.740Z,31.40
2019-02-27T20:33:22.269Z,31.00
2019-02-27T20:35:52.286Z,30.50
2019-02-27T20:38:20.192Z,29.53
2019-02-27T20:40:47.240Z,29.10
2019-02-27T20:43:14.492Z,27.80
2019-02-27T20:45:42.982Z,29.95
2019-02-27T20:48:10.561Z,28.73
2019-02-27T20:50:39.967Z,30.83
2019-02-27T20:53:08.002Z,29.03
2019-02-27T20:55:35.661Z,29.40
2019-02-27T20:58:03.172Z,28.27
2019-02-27T21:00:36.133Z,30.50
2019-02-27T21:03:02.599Z,31.47
2019-02-27T21:05:30.958Z,28.97
2019-02-27T21:08:02.065Z,28.90
2019-02-27T21:10:28.725Z,29.43
2019-02-27T21:12:56.130Z,29.90
2019-02-27T21:15:24.861Z,32.63
2019-02-27T21:17:52.503Z,30.43
2019-02-27T21:20:19.586Z,30.77
2019-02-27T21:22:47.211Z,29.90
2019-02-27T21:25:15.677Z,28.80
2019-02-27T21:27:43.307Z,30.57
2019-02-27T21:30:17.776Z,30.40
2019-02-27T21:32:42.784Z,31.90
2019-02-27T21:35:10.127Z,28.90
2019-02-27T21:37:37.752Z,31.60
2019-02-27T21:40:04.881Z,31.10
2019-02-27T21:42:32.819Z,31.40
2019-02-27T21:45:03.673Z,30.30
2019-02-27T21:47:29.161Z,33.20
2019-02-27T21:49:56.250Z,33.53
2019-02-27T21:52:24.270Z,32.40
2019-02-27T21:54:52.030Z,30.20
2019-02-27T21:57:19.082Z,34.57
2019-02-27T21:59:47.320Z,34.60
2019-02-27T22:02:14.557Z,34.20
2019-02-27T22:04:44.054Z,35.10
2019-02-27T22:07:11.695Z,35.73
2019-02-27T22:09:38.778Z,34.70
2019-02-27T22:12:07.049Z,36.90
2019-02-27T22:14:34.769Z,36.20
2019-02-27T22:17:05.064Z,33.90
2019-02-27T22:19:32.645Z,36.40
2019-02-27T22:22:01.618Z,36.90
2019-02-27T22:24:28.751Z,35.27
2019-02-27T22:26:56.155Z,35.83
2019-02-27T22:29:25.245Z,39.63
2019-02-27T22:31:54.367Z,38.17
2019-02-27T22:34:22.612Z,40.17
2019-02-27T22:36:51.088Z,40.17
2019-02-27T22:39:18.498Z,39.10
2019-02-27T22:41:45.682Z,39.40
2019-02-27T22:44:15.603Z,37.67
2019-02-27T22:46:42.718Z,41.00
2019-02-27T22:49:09.807Z,40.07
2019-02-27T22:51:37.160Z,40.57
2019-02-27T22:54:06.357Z,41.33
2019-02-27T22:56:34.144Z,42.47
2019-02-27T22:59:02.980Z,40.30
2019-02-27T23:01:59.614Z,41.50
2019-02-27T23:04:30.026Z,38.80
2019-02-27T23:06:56.529Z,44.17
2019-02-27T23:09:26.491Z,44.53
2019-02-27T23:11:53.886Z,43.33
2019-02-27T23:14:21.358Z,45.37
2019-02-27T23:16:48.578Z,43.70
2019-02-27T23:19:15.962Z,44.13
2019-02-27T23:21:43.175Z,40.27
2019-02-27T23:24:11.274Z,43.77
2019-02-27T23:26:39.659Z,48.47
2019-02-27T23:29:07.554Z,44.23
2019-02-27T23:31:34.794Z,49.07
2019-02-27T23:34:02.057Z,45.73
2019-02-27T23:36:30.409Z,48.30
2019-02-27T23:38:58.103Z,47.43
2019-02-27T23:41:26.116Z,47.40
2019-02-27T23:43:53.191Z,50.23
2019-02-27T23:46:20.377Z,43.97
2019-02-27T23:48:47.480Z,48.93
2019-02-27T23:51:16.747Z,50.33
2019-02-27T23:53:43.624Z,48.87
2019-02-27T23:56:10.724Z,49.80
2019-02-27T23:58:37.968Z,48.80
